createdAt,value
2018-02-21T00:00:12.902Z,51.00
2018-02-21T00:02:41.168Z,51.20
2018-02-21T00:05:10.765Z,50.80
2018-02-21T00:07:39.547Z,50.90
2018-02-21T00:10:07.835Z,50.80
2018-02-21T00:12:36.111Z,51.00
2018-02-21T00:15:04.486Z,51.00
2018-02-21T00:17:35.021Z,51.00
2018-02-21T00:20:03.302Z,51.20
2018-02-21T00:22:31.586Z,51.20
2018-02-21T00:25:00.623Z,51.50
2018-02-21T00:27:28.967Z,51.40
2018-02-21T00:29:59.450Z,51.60
2018-02-21T00:32:27.707Z,51.60
2018-02-21T00:34:55.984Z,51.30
2018-02-21T00:37:24.279Z,51.40
2018-02-21T00:39:52.547Z,51.80
2018-02-21T00:42:22.484Z,51.80
2018-02-21T00:44:50.929Z,51.80
2018-02-21T00:47:19.202Z,51.70
2018-02-21T00:49:47.465Z,51.80
2018-02-21T00:52:15.795Z,51.80
2018-02-21T00:54:49.257Z,52.30
2018-02-21T00:57:17.576Z,51.80
2018-02-21T00:59:45.843Z,52.00
2018-02-21T01:02:14.140Z,51.80
2018-02-21T01:04:42.438Z,51.90
2018-02-21T01:07:12.353Z,52.10
2018-02-21T01:09:42.762Z,52.30
2018-02-21T01:12:11.180Z,52.20
2018-02-21T01:14:39.446Z,52.10
2018-02-21T01:17:07.758Z,52.30
2018-02-21T01:19:38.632Z,52.30
2018-02-21T01:22:07.789Z,52.70
2018-02-21T01:24:36.040Z,52.80
2018-02-21T01:27:04.458Z,53.00
2018-02-21T01:29:32.802Z,52.80
2018-02-21T01:32:06.174Z,53.00
2018-02-21T01:34:35.315Z,53.40
2018-02-21T01:37:03.671Z,53.40
2018-02-21T01:39:32.320Z,53.20
2018-02-21T01:42:01.452Z,53.50
2018-02-21T01:44:30.798Z,53.50
2018-02-21T01:46:59.668Z,53.60
2018-02-21T01:49:27.948Z,53.70
2018-02-21T01:51:56.298Z,54.00
2018-02-21T01:54:24.659Z,54.00
2018-02-21T01:56:53.686Z,53.80
2018-02-21T01:59:21.994Z,53.50
2018-02-21T02:01:50.514Z,53.50
2018-02-21T02:04:18.785Z,53.70
2018-02-21T02:06:47.817Z,53.50
2018-02-21T02:09:18.047Z,53.50
2018-02-21T02:11:46.326Z,53.50
2018-02-21T02:14:14.579Z,53.40
2018-02-21T02:16:43.012Z,53.40
2018-02-21T02:19:12.033Z,54.10
2018-02-21T02:21:41.067Z,53.70
2018-02-21T02:24:10.065Z,53.80
2018-02-21T02:26:38.329Z,53.80
2018-02-21T02:29:06.604Z,54.20
2018-02-21T02:31:34.909Z,54.30
2018-02-21T02:34:05.532Z,54.30
2018-02-21T02:36:33.835Z,54.60
2018-02-21T02:39:15.495Z,55.00
2018-02-21T02:41:43.789Z,55.00
2018-02-21T02:44:15.118Z,55.50
2018-02-21T02:46:43.421Z,55.50
2018-02-21T02:49:12.461Z,55.70
2018-02-21T02:51:40.732Z,55.50
2018-02-21T02:54:09.188Z,55.90
2018-02-21T02:56:40.872Z,55.80
2018-02-21T02:59:09.141Z,55.90
2018-02-21T03:01:37.460Z,56.10
2018-02-21T03:04:05.822Z,55.90
2018-02-21T03:06:34.091Z,55.90
2018-02-21T03:09:03.414Z,55.80
2018-02-21T03:11:31.685Z,56.00
2018-02-21T03:13:59.960Z,56.10
2018-02-21T03:16:29.214Z,56.10
2018-02-21T03:18:57.495Z,56.30
2018-02-21T03:21:27.514Z,56.40
2018-02-21T03:23:55.821Z,56.40
2018-02-21T03:26:24.098Z,56.50
2018-02-21T03:28:52.354Z,56.50
2018-02-21T03:31:20.686Z,56.60
2018-02-21T03:33:51.286Z,56.70
2018-02-21T03:36:20.661Z,56.70
2018-02-21T03:38:49.136Z,56.90
2018-02-21T03:41:17.416Z,57.20
2018-02-21T03:43:45.703Z,56.90
2018-02-21T03:46:17.071Z,56.70
2018-02-21T03:48:45.370Z,56.80
2018-02-21T03:51:13.646Z,57.00
2018-02-21T03:53:42.414Z,57.00
2018-02-21T03:56:10.696Z,57.00
2018-02-21T03:58:40.491Z,56.90
2018-02-21T04:01:08.896Z,57.20
2018-02-21T04:03:37.171Z,57.20
2018-02-21T04:06:05.539Z,57.40
2018-02-21T04:08:33.860Z,57.30
2018-02-21T04:11:04.724Z,57.20
2018-02-21T04:13:33.003Z,57.00
2018-02-21T04:16:01.612Z,56.80
2018-02-21T04:18:29.878Z,56.90
2018-02-21T04:20:58.146Z,56.70
2018-02-21T04:23:26.442Z,56.60
2018-02-21T04:25:54.712Z,56.50
2018-02-21T04:28:22.984Z,56.70
2018-02-21T04:30:51.670Z,56.90
2018-02-21T04:33:19.941Z,56.80
2018-02-21T04:35:56.735Z,57.20
2018-02-21T04:38:28.855Z,57.20
2018-02-21T04:40:57.490Z,57.30
2018-02-21T04:43:27.386Z,57.30
2018-02-21T04:45:55.745Z,57.30
2018-02-21T04:48:27.635Z,57.50
2018-02-21T04:50:55.919Z,57.50
2018-02-21T04:53:24.184Z,57.80
2018-02-21T04:56:07.515Z,57.90
2018-02-21T04:58:55.077Z,58.20
2018-02-21T05:01:24.168Z,58.60
2018-02-21T05:03:53.215Z,58.40
2018-02-21T05:06:21.480Z,58.40
2018-02-21T05:08:51.117Z,58.60
2018-02-21T05:11:21.525Z,58.60
2018-02-21T05:13:49.803Z,58.70
2018-02-21T05:16:18.110Z,58.70
2018-02-21T05:18:46.378Z,58.80
2018-02-21T05:21:14.645Z,58.90
2018-02-21T05:23:43.545Z,58.70
2018-02-21T05:26:12.615Z,58.70
2018-02-21T05:28:40.877Z,58.70
2018-02-21T05:31:09.207Z,58.60
2018-02-21T05:33:38.256Z,58.70
2018-02-21T05:36:07.273Z,58.40
2018-02-21T05:38:36.066Z,58.50
2018-02-21T05:41:04.346Z,58.60
2018-02-21T05:43:32.686Z,58.80
2018-02-21T05:46:01.033Z,58.80
2018-02-21T05:48:31.454Z,58.90
2018-02-21T05:51:00.507Z,59.20
2018-02-21T05:53:28.837Z,59.10
2018-02-21T05:55:57.939Z,59.10
2018-02-21T05:58:26.213Z,59.00
2018-02-21T06:00:55.814Z,59.20
2018-02-21T06:03:24.886Z,58.90
2018-02-21T06:05:53.150Z,58.90
2018-02-21T06:08:21.629Z,59.60
2018-02-21T06:10:49.915Z,59.10
2018-02-21T06:13:20.011Z,58.90
2018-02-21T06:15:49.015Z,59.00
2018-02-21T06:18:17.295Z,59.10
2018-02-21T06:20:45.585Z,59.10
2018-02-21T06:23:13.890Z,59.10
2018-02-21T06:25:42.949Z,59.30
2018-02-21T06:28:11.222Z,58.80
2018-02-21T06:30:39.717Z,58.90
2018-02-21T06:33:08.761Z,58.60
2018-02-21T06:35:37.070Z,58.50
2018-02-21T06:38:06.685Z,58.60
2018-02-21T06:40:35.237Z,58.60
2018-02-21T06:43:03.525Z,58.90
2018-02-21T06:45:31.922Z,58.80
2018-02-21T06:48:00.198Z,59.00
2018-02-21T06:50:34.774Z,59.00
2018-02-21T06:53:08.532Z,59.00
2018-02-21T06:55:42.560Z,59.00
2018-02-21T06:58:16.340Z,59.60
2018-02-21T07:00:50.252Z,58.80
2018-02-21T07:03:23.896Z,58.50
2018-02-21T07:05:58.691Z,58.20
2018-02-21T07:08:32.333Z,58.10
2018-02-21T07:11:07.582Z,57.80
2018-02-21T07:13:42.253Z,57.90
2018-02-21T07:16:16.059Z,57.70
2018-02-21T07:18:50.644Z,57.60
2018-02-21T07:21:25.971Z,57.60
2018-02-21T07:23:59.807Z,57.60
2018-02-21T07:26:33.682Z,57.20
2018-02-21T07:29:07.449Z,56.80
2018-02-21T07:31:44.274Z,56.40
2018-02-21T07:34:18.831Z,56.40
2018-02-21T07:36:52.669Z,56.30
2018-02-21T07:39:27.142Z,56.50
2018-02-21T07:42:04.267Z,56.10
2018-02-21T07:44:38.072Z,56.10
2018-02-21T07:47:11.888Z,56.00
2018-02-21T07:49:45.514Z,55.60
2018-02-21T07:52:21.078Z,55.10
2018-02-21T07:54:54.778Z,54.60
2018-02-21T07:57:29.488Z,54.10
2018-02-21T08:00:03.213Z,54.00
2018-02-21T08:02:39.598Z,53.90
2018-02-21T08:05:13.336Z,54.10
2018-02-21T08:07:47.120Z,53.70
2018-02-21T08:10:20.827Z,53.30
2018-02-21T08:13:00.798Z,52.70
2018-02-21T08:15:34.427Z,52.00
2018-02-21T08:18:09.013Z,51.60
2018-02-21T08:20:42.746Z,51.50
2018-02-21T08:23:17.756Z,51.20
2018-02-21T08:25:51.550Z,51.10
2018-02-21T08:28:25.495Z,51.10
2018-02-21T08:30:59.170Z,50.20
2018-02-21T08:33:33.028Z,50.60
2018-02-21T08:36:06.784Z,49.50
2018-02-21T08:38:41.135Z,49.70
2018-02-21T08:41:14.833Z,49.90
2018-02-21T08:43:51.274Z,49.50
2018-02-21T08:46:25.040Z,49.00
2018-02-21T08:48:59.680Z,47.80
2018-02-21T08:51:33.305Z,47.80
2018-02-21T08:54:09.210Z,47.90
2018-02-21T08:56:42.934Z,47.90
2018-02-21T08:59:16.850Z,47.90
2018-02-21T09:01:50.560Z,47.70
2018-02-21T09:04:25.562Z,47.20
2018-02-21T09:06:59.233Z,46.80
2018-02-21T09:09:34.431Z,46.80
2018-02-21T09:12:08.172Z,46.30
2018-02-21T09:14:43.487Z,46.50
2018-02-21T09:19:41.015Z,46.70
2018-02-21T09:22:15.071Z,44.90
2018-02-21T09:24:53.599Z,44.20
2018-02-21T09:27:28.517Z,44.40
2018-02-21T09:30:02.374Z,44.70
2018-02-21T09:32:36.286Z,45.10
2018-02-21T09:35:09.974Z,44.80
2018-02-21T09:37:44.016Z,45.50
2018-02-21T09:40:17.811Z,45.50
2018-02-21T09:42:52.482Z,45.10
2018-02-21T09:45:28.318Z,44.90
2018-02-21T09:48:02.247Z,45.40
2018-02-21T09:50:36.100Z,46.00
2018-02-21T09:53:09.927Z,45.40
2018-02-21T09:55:45.030Z,45.60
2018-02-21T09:58:19.309Z,45.20
2018-02-21T10:00:52.908Z,45.10
2018-02-21T10:03:26.804Z,44.90
2018-02-21T10:06:03.419Z,43.70
2018-02-21T10:08:37.337Z,44.30
2018-02-21T10:11:13.648Z,43.70
2018-02-21T10:13:48.854Z,43.70
2018-02-21T10:16:23.363Z,43.70
2018-02-21T10:18:57.034Z,43.30
2018-02-21T10:21:30.741Z,43.20
2018-02-21T10:24:05.365Z,43.20
2018-02-21T10:26:40.910Z,43.20
2018-02-21T10:29:15.033Z,42.00
2018-02-21T10:31:48.736Z,41.20
2018-02-21T10:34:22.869Z,41.50
2018-02-21T10:36:56.483Z,40.90
2018-02-21T10:39:30.454Z,40.20
2018-02-21T10:42:04.386Z,39.30
2018-02-21T10:44:38.293Z,40.10
2018-02-21T10:47:15.719Z,41.00
2018-02-21T10:49:49.652Z,41.40
2018-02-21T10:52:23.513Z,41.50
2018-02-21T10:54:57.341Z,41.50
2018-02-21T10:57:31.853Z,42.30
2018-02-21T11:00:05.918Z,41.10
2018-02-21T11:02:39.659Z,40.20
2018-02-21T11:05:13.397Z,40.90
2018-02-21T11:07:50.323Z,40.90
2018-02-21T11:10:24.122Z,40.90
2018-02-21T11:12:58.598Z,41.00
2018-02-21T11:15:32.695Z,41.00
2018-02-21T11:18:09.438Z,41.30
2018-02-21T11:20:43.445Z,39.90
2018-02-21T11:23:17.889Z,40.30
2018-02-21T11:25:52.637Z,40.30
2018-02-21T11:28:29.675Z,41.80
2018-02-21T11:31:03.914Z,41.70
2018-02-21T11:33:37.591Z,42.20
2018-02-21T11:36:11.508Z,41.00
2018-02-21T11:38:45.980Z,41.60
2018-02-21T11:41:19.786Z,41.60
2018-02-21T11:43:53.527Z,42.30
2018-02-21T11:46:28.546Z,41.70
2018-02-21T11:49:03.607Z,41.60
2018-02-21T11:51:37.418Z,41.70
2018-02-21T11:54:11.961Z,40.80
2018-02-21T11:56:45.733Z,40.80
2018-02-21T11:59:20.262Z,40.10
2018-02-21T12:01:54.217Z,40.10
2018-02-21T12:04:27.907Z,40.50
2018-02-21T12:07:01.781Z,39.80
2018-02-21T12:09:37.026Z,40.70
2018-02-21T12:12:12.219Z,41.90
2018-02-21T12:14:40.596Z,38.80
2018-02-21T12:17:08.867Z,39.80
2018-02-21T12:19:38.282Z,40.20
2018-02-21T12:22:06.579Z,40.00
2018-02-21T12:24:34.845Z,39.40
2018-02-21T12:27:03.356Z,38.40
2018-02-21T12:29:32.448Z,38.40
2018-02-21T12:32:02.018Z,38.40
2018-02-21T12:34:31.752Z,38.10
2018-02-21T12:37:00.796Z,38.70
2018-02-21T12:39:36.973Z,38.20
2018-02-21T12:42:05.364Z,37.30
2018-02-21T12:44:33.628Z,36.60
2018-02-21T12:47:02.229Z,36.70
2018-02-21T12:49:30.779Z,37.50
2018-02-21T12:51:59.034Z,37.30
2018-02-21T12:54:30.027Z,37.50
2018-02-21T12:56:59.804Z,36.30
2018-02-21T12:59:28.069Z,36.30
2018-02-21T13:01:56.524Z,36.30
2018-02-21T13:04:25.575Z,37.00
2018-02-21T13:06:56.956Z,36.90
2018-02-21T13:09:27.453Z,35.90
2018-02-21T13:11:55.730Z,36.00
2018-02-21T13:14:24.006Z,36.10
2018-02-21T13:16:52.300Z,36.50
2018-02-21T13:19:22.131Z,36.60
2018-02-21T13:21:50.406Z,35.80
2018-02-21T13:24:19.612Z,36.00
2018-02-21T13:26:48.653Z,36.60
2018-02-21T13:29:17.040Z,36.60
2018-02-21T13:31:46.745Z,35.90
2018-02-21T13:34:15.075Z,36.60
2018-02-21T13:36:44.156Z,37.00
2018-02-21T13:39:14.151Z,37.00
2018-02-21T13:41:42.428Z,36.80
2018-02-21T13:44:20.138Z,37.10
2018-02-21T13:46:48.425Z,37.00
2018-02-21T13:49:16.720Z,37.10
2018-02-21T13:51:46.794Z,37.90
2018-02-21T13:54:16.581Z,38.70
2018-02-21T13:56:44.973Z,38.60
2018-02-21T13:59:13.349Z,36.90
2018-02-21T14:01:41.728Z,37.30
2018-02-21T14:04:10.014Z,38.10
2018-02-21T14:06:39.038Z,38.30
2018-02-21T14:09:08.864Z,37.70
2018-02-21T14:11:37.230Z,37.80
2018-02-21T14:14:05.528Z,37.80
2018-02-21T14:16:33.992Z,37.40
2018-02-21T14:19:03.072Z,37.00
2018-02-21T14:21:32.915Z,36.90
2018-02-21T14:24:01.946Z,37.40
2018-02-21T14:26:30.205Z,37.30
2018-02-21T14:28:58.722Z,37.60
2018-02-21T14:31:27.098Z,37.50
2018-02-21T14:33:55.646Z,37.20
2018-02-21T14:36:24.009Z,37.70
2018-02-21T14:38:52.260Z,37.50
2018-02-21T14:41:21.329Z,37.80
2018-02-21T14:43:49.899Z,37.70
2018-02-21T14:46:20.508Z,37.90
2018-02-21T14:48:48.908Z,38.00
2018-02-21T14:51:17.308Z,38.20
2018-02-21T14:53:48.432Z,38.40
2018-02-21T14:56:16.704Z,38.40
2018-02-21T14:58:45.729Z,38.50
2018-02-21T15:01:14.043Z,38.80
2018-02-21T15:03:42.327Z,38.20
2018-02-21T15:06:10.993Z,37.40
2018-02-21T15:08:40.032Z,37.70
2018-02-21T15:11:09.612Z,37.60
2018-02-21T15:13:38.147Z,37.40
2018-02-21T15:16:07.189Z,37.80
2018-02-21T15:18:35.466Z,37.70
2018-02-21T15:21:04.185Z,38.10
2018-02-21T15:23:34.755Z,38.10
2018-02-21T15:26:03.803Z,38.90
2018-02-21T15:28:32.314Z,38.80
2018-02-21T15:31:01.205Z,39.10
2018-02-21T15:33:29.493Z,39.30
2018-02-21T15:35:59.998Z,39.70
2018-02-21T15:38:28.457Z,39.40
2018-02-21T15:40:57.637Z,39.30
2018-02-21T15:43:26.002Z,39.50
2018-02-21T15:45:54.276Z,39.30
2018-02-21T15:48:22.559Z,39.60
2018-02-21T15:50:50.860Z,39.90
2018-02-21T15:53:19.128Z,39.80
2018-02-21T15:55:48.320Z,40.20
2018-02-21T15:58:17.042Z,40.10
2018-02-21T16:00:47.636Z,40.80
2018-02-21T16:03:15.918Z,40.80
2018-02-21T16:05:45.870Z,40.60
2018-02-21T16:08:14.135Z,40.80
2018-02-21T16:10:42.409Z,41.00
2018-02-21T16:13:13.777Z,41.00
2018-02-21T16:15:42.048Z,41.30
2018-02-21T16:18:10.312Z,41.30
2018-02-21T16:20:38.804Z,41.20
2018-02-21T16:23:07.792Z,41.80
2018-02-21T16:25:36.743Z,41.70
2018-02-21T16:28:04.976Z,41.40
2018-02-21T16:30:34.605Z,42.10
2018-02-21T16:33:02.816Z,42.10
2018-02-21T16:35:32.048Z,42.20
2018-02-21T16:38:02.900Z,42.30
2018-02-21T16:40:31.857Z,42.60
2018-02-21T16:43:00.082Z,42.60
2018-02-21T16:45:28.264Z,42.70
2018-02-21T16:47:56.468Z,42.90
2018-02-21T16:50:25.728Z,43.00
2018-02-21T16:52:54.698Z,43.10
2018-02-21T16:55:23.685Z,43.00
2018-02-21T16:57:53.891Z,43.40
2018-02-21T17:00:22.915Z,43.30
2018-02-21T17:02:53.856Z,43.50
2018-02-21T17:05:22.231Z,43.40
2018-02-21T17:07:51.223Z,43.70
2018-02-21T17:10:20.189Z,43.70
2018-02-21T17:12:48.405Z,43.60
2018-02-21T17:15:17.655Z,43.70
2018-02-21T17:17:45.860Z,43.80
2018-02-21T17:20:17.332Z,44.00
2018-02-21T17:22:46.315Z,43.70
2018-02-21T17:25:14.610Z,43.70
2018-02-21T17:27:43.367Z,44.00
2018-02-21T17:30:12.350Z,43.80
2018-02-21T17:32:40.669Z,43.90
2018-02-21T17:35:09.960Z,44.20
2018-02-21T17:37:38.147Z,44.10
2018-02-21T17:40:10.554Z,44.40
2018-02-21T17:42:38.766Z,44.50
2018-02-21T17:45:06.977Z,44.40
2018-02-21T17:47:35.188Z,44.80
2018-02-21T17:50:03.371Z,44.70
2018-02-21T17:52:36.144Z,44.80
2018-02-21T17:55:04.549Z,45.50
2018-02-21T17:57:35.066Z,45.40
2018-02-21T18:00:04.462Z,45.40
2018-02-21T18:02:35.220Z,45.50
2018-02-21T18:05:04.183Z,45.30
2018-02-21T18:07:32.386Z,45.20
2018-02-21T18:10:01.580Z,45.50
2018-02-21T18:12:30.559Z,45.70
2018-02-21T18:14:59.524Z,45.80
2018-02-21T18:17:29.042Z,45.80
2018-02-21T18:19:58.209Z,46.70
2018-02-21T18:22:27.139Z,46.10
2018-02-21T18:24:56.139Z,46.40
2018-02-21T18:27:24.328Z,46.40
2018-02-21T18:29:53.302Z,46.70
2018-02-21T18:32:21.496Z,46.70
2018-02-21T18:34:49.701Z,46.70
2018-02-21T18:37:17.892Z,46.60
2018-02-21T18:39:47.247Z,47.00
2018-02-21T18:42:18.031Z,47.00
2018-02-21T18:44:46.211Z,47.20
2018-02-21T18:47:14.574Z,47.10
2018-02-21T18:49:42.768Z,46.80
2018-02-21T18:52:11.716Z,46.70
2018-02-21T18:54:39.943Z,47.00
2018-02-21T18:57:08.186Z,46.50
2018-02-21T18:59:37.097Z,46.60
2018-02-21T19:02:06.001Z,46.40
2018-02-21T19:04:34.177Z,46.60
2018-02-21T19:07:02.379Z,46.20
2018-02-21T19:09:31.411Z,46.20
2018-02-21T19:12:01.056Z,46.20
2018-02-21T19:14:30.024Z,46.10
2018-02-21T19:16:58.384Z,46.10
2018-02-21T19:19:27.796Z,46.00
2018-02-21T19:21:56.744Z,46.30
2018-02-21T19:24:26.475Z,46.70
2018-02-21T19:26:54.667Z,46.70
2018-02-21T19:29:22.888Z,46.60
2018-02-21T19:31:53.959Z,46.40
2018-02-21T19:34:22.163Z,46.40
2018-02-21T19:36:50.374Z,46.20
2018-02-21T19:39:19.457Z,46.40
2018-02-21T19:41:47.683Z,46.40
2018-02-21T19:44:16.089Z,46.30
2018-02-21T19:46:44.326Z,46.50
2018-02-21T19:49:13.316Z,46.40
2018-02-21T19:51:42.327Z,46.40
2018-02-21T19:54:10.891Z,46.40
2018-02-21T19:56:41.482Z,46.70
2018-02-21T19:59:09.695Z,46.60
2018-02-21T20:01:38.075Z,46.80
2018-02-21T20:04:11.536Z,46.70
2018-02-21T20:06:39.953Z,46.70
2018-02-21T20:09:08.908Z,46.90
2018-02-21T20:11:37.900Z,46.90
2018-02-21T20:14:06.099Z,46.90
2018-02-21T20:16:35.085Z,47.20
2018-02-21T20:19:04.084Z,47.40
2018-02-21T20:21:35.122Z,47.20
2018-02-21T20:24:04.122Z,47.30
2018-02-21T20:26:33.805Z,47.50
2018-02-21T20:29:02.294Z,47.50
2018-02-21T20:31:30.591Z,47.50
2018-02-21T20:33:58.905Z,47.60
2018-02-21T20:36:27.417Z,47.80
2018-02-21T20:38:56.412Z,47.60
2018-02-21T20:41:24.704Z,47.70
2018-02-21T20:43:53.412Z,48.00
2018-02-21T20:46:23.551Z,47.90
2018-02-21T20:48:51.829Z,47.80
2018-02-21T20:51:20.135Z,48.10
2018-02-21T20:53:48.398Z,48.40
2018-02-21T20:56:16.681Z,48.50
2018-02-21T20:58:45.091Z,48.80
2018-02-21T21:01:19.041Z,48.70
2018-02-21T21:03:54.801Z,49.30
2018-02-21T21:06:29.855Z,48.80
2018-02-21T21:08:58.156Z,48.90
2018-02-21T21:11:26.426Z,48.90
2018-02-21T21:14:01.796Z,49.10
2018-02-21T21:16:31.586Z,49.10
2018-02-21T21:19:02.242Z,49.10
2018-02-21T21:21:31.290Z,49.20
2018-02-21T21:23:59.570Z,49.10
2018-02-21T21:26:28.067Z,49.10
2018-02-21T21:28:56.357Z,49.00
2018-02-21T21:31:25.410Z,49.10
2018-02-21T21:33:53.941Z,49.20
2018-02-21T21:36:23.717Z,49.10
2018-02-21T21:38:52.053Z,49.40
2018-02-21T21:41:21.386Z,49.30
2018-02-21T21:43:50.518Z,49.30
2018-02-21T21:46:18.846Z,49.00
2018-02-21T21:48:47.379Z,49.10
2018-02-21T21:51:16.473Z,49.10
2018-02-21T21:53:44.857Z,49.30
2018-02-21T21:56:14.674Z,49.40
2018-02-21T21:58:42.946Z,49.00
2018-02-21T22:01:11.227Z,49.20
2018-02-21T22:03:41.545Z,49.80
2018-02-21T22:06:09.812Z,49.40
2018-02-21T22:08:41.904Z,49.00
2018-02-21T22:11:10.949Z,49.10
2018-02-21T22:13:39.225Z,49.10
2018-02-21T22:16:07.629Z,48.80
2018-02-21T22:18:35.899Z,48.70
2018-02-21T22:21:06.185Z,48.90
2018-02-21T22:23:34.775Z,48.70
2018-02-21T22:26:03.053Z,48.90
2018-02-21T22:28:31.332Z,48.90
2018-02-21T22:30:59.838Z,48.70
2018-02-21T22:33:29.630Z,48.60
2018-02-21T22:35:57.908Z,48.70
2018-02-21T22:38:26.227Z,48.60
2018-02-21T22:40:56.836Z,49.20
2018-02-21T22:43:25.162Z,48.70
2018-02-21T22:45:53.794Z,48.90
2018-02-21T22:48:22.075Z,49.10
2018-02-21T22:50:50.362Z,49.30
2018-02-21T22:53:19.415Z,49.00
2018-02-21T22:55:48.446Z,49.40
2018-02-21T22:58:16.728Z,49.40
2018-02-21T23:00:45.427Z,49.10
2018-02-21T23:03:13.691Z,49.10
2018-02-21T23:05:42.690Z,48.90
2018-02-21T23:08:11.190Z,49.00
2018-02-21T23:10:43.303Z,49.10
2018-02-21T23:13:11.582Z,49.10
2018-02-21T23:15:40.088Z,49.10
2018-02-21T23:18:08.361Z,49.10
2018-02-21T23:20:36.679Z,49.10
2018-02-21T23:23:05.740Z,49.00
2018-02-21T23:25:34.013Z,49.30
2018-02-21T23:28:02.372Z,49.20
2018-02-21T23:30:31.568Z,49.60
2018-02-21T23:32:59.831Z,49.60
2018-02-21T23:35:30.352Z,49.80
2018-02-21T23:37:58.975Z,49.90
2018-02-21T23:40:27.312Z,49.80
2018-02-21T23:42:55.600Z,50.00
2018-02-21T23:45:23.996Z,50.30
2018-02-21T23:47:55.326Z,50.10
2018-02-21T23:50:23.602Z,50.20
2018-02-21T23:52:52.115Z,50.20
2018-02-21T23:55:22.646Z,50.20
2018-02-21T23:57:50.923Z,50.20
